KCLS/CLS METAR and TAF weather

Enter ICAO airport designator
Station Type Date Time Source
KCLS METAR 2019/12/14 11:15 UTC NOAA

KCLS 141115Z AUTO 00000KT 6SM BR BKN005 OVC034 05/05 A3002 RMK AO2


Station Type Date Time Source
KCLS Decoded METAR 2019/12/14 11:15 UTC NOAA

Station name not available
Dec 14, 2019 - 06:15 AM EST / 2019.12.14 1115 UTC
Wind: Calm:0
Visibility: 6 mile(s):0
Sky conditions: overcast
Weather: mist
Temperature: 41 F (5 C)
Dew Point: 41 F (5 C)
Relative Humidity: 100%
Pressure (altimeter): 30.02 in. Hg (1016 hPa)
ob: KCLS 141115Z AUTO 00000KT 6SM BR BKN005 OVC034 05/05 A3002 RMK AO2
cycle: 11

Station Type Date Time Source
KCLS TAF UTC NOAA

Error!

Example: see airport list